VCV9 SVMG-SVMI
Flight info
| Callsign | VCV9 |
|---|---|
| Flight time | 0h 43m |
| Altitude | 32000 |
| Route | ESPEP SARNI DCT CBC NETSI1 |
| Aircraft | E190/M-SDE3GILORVW/S |
Departure
| Time | 2026-04-29 13:28 |
|---|---|
| Airport | Del Caribe Santiago Mariño International Airport (SVMG) |
Arrival
| Time | 2026-04-29 14:11 |
|---|---|
| Airport | Maiquetía Simón Bolívar International Airport (SVMI) |
| Time | Latitude | Longitude | Altitude | Speed | Heading |
|---|---|---|---|---|---|
| 2026-04-29 13:05 | 10.91576 | -63.96903 | 59 ft | 0 kts | 348° |
| 2026-04-29 13:06 | 10.91575 | -63.96903 | 59 ft | 0 kts | 348° |
| 2026-04-29 13:20 | 10.91553 | -63.96898 | 50 ft | 4 kts | 352° |
| 2026-04-29 13:20 | 10.91526 | -63.96895 | 54 ft | 4 kts | 346° |
| 2026-04-29 13:20 | 10.91507 | -63.96888 | 54 ft | 4 kts | 275° |
| 2026-04-29 13:20 | 10.91506 | -63.96884 | 52 ft | 0 kts | 258° |
| 2026-04-29 13:22 | 10.91504 | -63.96894 | 59 ft | 2 kts | 258° |
| 2026-04-29 13:22 | 10.91500 | -63.96916 | 59 ft | 4 kts | 258° |
| 2026-04-29 13:23 | 10.91492 | -63.96952 | 57 ft | 6 kts | 258° |
| 2026-04-29 13:23 | 10.91471 | -63.96996 | 52 ft | 8 kts | 225° |
| 2026-04-29 13:23 | 10.91417 | -63.97014 | 57 ft | 9 kts | 182° |
| 2026-04-29 13:23 | 10.91363 | -63.97038 | 59 ft | 9 kts | 242° |
| 2026-04-29 13:24 | 10.91345 | -63.97109 | 61 ft | 11 kts | 258° |
| 2026-04-29 13:24 | 10.91327 | -63.97196 | 61 ft | 13 kts | 258° |
| 2026-04-29 13:24 | 10.91307 | -63.97295 | 54 ft | 15 kts | 258° |
| 2026-04-29 13:24 | 10.91283 | -63.97408 | 56 ft | 18 kts | 258° |
| 2026-04-29 13:25 | 10.91257 | -63.97538 | 59 ft | 20 kts | 258° |
| 2026-04-29 13:25 | 10.91195 | -63.97840 | 53 ft | 24 kts | 258° |
| 2026-04-29 13:25 | 10.91161 | -63.98006 | 51 ft | 23 kts | 258° |
| 2026-04-29 13:26 | 10.91133 | -63.98148 | 53 ft | 18 kts | 257° |
| 2026-04-29 13:26 | 10.91056 | -63.98148 | 62 ft | 11 kts | 126° |
| 2026-04-29 13:26 | 10.91013 | -63.98095 | 73 ft | 9 kts | 135° |
| 2026-04-29 13:26 | 10.90972 | -63.98066 | 71 ft | 6 kts | 90° |
| 2026-04-29 13:27 | 10.90997 | -63.97957 | 71 ft | 36 kts | 78° |
| 2026-04-29 13:27 | 10.91097 | -63.97470 | 65 ft | 103 kts | 79° |
| 2026-04-29 13:27 | 10.91285 | -63.96571 | 114 ft | 152 kts | 77° |
| 2026-04-29 13:27 | 10.91543 | -63.95412 | 479 ft | 181 kts | 78° |
| 2026-04-29 13:28 | 10.91824 | -63.94136 | 852 ft | 188 kts | 80° |
| 2026-04-29 13:28 | 10.92087 | -63.92749 | 1306 ft | 207 kts | 81° |
| 2026-04-29 13:28 | 10.92102 | -63.91323 | 2316 ft | 203 kts | 106° |
| 2026-04-29 13:28 | 10.91489 | -63.90055 | 3272 ft | 204 kts | 127° |
| 2026-04-29 13:29 | 10.90404 | -63.89018 | 3929 ft | 235 kts | 146° |
| 2026-04-29 13:29 | 10.88744 | -63.88523 | 4590 ft | 262 kts | 175° |
| 2026-04-29 13:29 | 10.86913 | -63.88862 | 5572 ft | 276 kts | 202° |
| 2026-04-29 13:29 | 10.85395 | -63.90067 | 6700 ft | 283 kts | 226° |
| 2026-04-29 13:30 | 10.84387 | -63.91814 | 7672 ft | 293 kts | 247° |
| 2026-04-29 13:30 | 10.83713 | -63.93793 | 8666 ft | 299 kts | 250° |
| 2026-04-29 13:30 | 10.83010 | -63.95810 | 9688 ft | 305 kts | 250° |
| 2026-04-29 13:30 | 10.82269 | -63.97874 | 10495 ft | 322 kts | 249° |
| 2026-04-29 13:31 | 10.81472 | -64.00064 | 11190 ft | 338 kts | 250° |
| 2026-04-29 13:31 | 10.80957 | -64.01583 | 11666 ft | 348 kts | 251° |
| 2026-04-29 13:31 | 10.80564 | -64.02776 | 11993 ft | 357 kts | 251° |
| 2026-04-29 13:31 | 10.79787 | -64.05225 | 12738 ft | 370 kts | 252° |
| 2026-04-29 13:32 | 10.79036 | -64.07757 | 13606 ft | 378 kts | 252° |
| 2026-04-29 13:32 | 10.78311 | -64.10348 | 14487 ft | 383 kts | 253° |
| 2026-04-29 13:32 | 10.77622 | -64.12972 | 15437 ft | 386 kts | 255° |
| 2026-04-29 13:32 | 10.76996 | -64.15599 | 16371 ft | 389 kts | 257° |
| 2026-04-29 13:33 | 10.76645 | -64.18379 | 17257 ft | 394 kts | 266° |
| 2026-04-29 13:33 | 10.76469 | -64.21172 | 18097 ft | 398 kts | 266° |
| 2026-04-29 13:33 | 10.76273 | -64.23995 | 18791 ft | 402 kts | 265° |
| 2026-04-29 13:33 | 10.76143 | -64.25878 | 19235 ft | 404 kts | 265° |
| 2026-04-29 13:34 | 10.75878 | -64.29674 | 20081 ft | 409 kts | 265° |
| 2026-04-29 13:34 | 10.75742 | -64.31635 | 20522 ft | 411 kts | 265° |
| 2026-04-29 13:34 | 10.75537 | -64.34552 | 21155 ft | 415 kts | 264° |
| 2026-04-29 13:34 | 10.75334 | -64.37451 | 21763 ft | 418 kts | 264° |
| 2026-04-29 13:35 | 10.75125 | -64.40413 | 22365 ft | 421 kts | 264° |
| 2026-04-29 13:35 | 10.74915 | -64.43396 | 22935 ft | 425 kts | 264° |
| 2026-04-29 13:35 | 10.74703 | -64.46417 | 23511 ft | 429 kts | 264° |
| 2026-04-29 13:35 | 10.74489 | -64.49447 | 24010 ft | 431 kts | 264° |
| 2026-04-29 13:36 | 10.74274 | -64.52497 | 24487 ft | 433 kts | 264° |
| 2026-04-29 13:36 | 10.74058 | -64.55565 | 24953 ft | 435 kts | 264° |
| 2026-04-29 13:36 | 10.73840 | -64.58643 | 25390 ft | 437 kts | 265° |
| 2026-04-29 13:36 | 10.73620 | -64.61742 | 25798 ft | 440 kts | 265° |
| 2026-04-29 13:37 | 10.73307 | -64.64844 | 26193 ft | 442 kts | 262° |
| 2026-04-29 13:37 | 10.72942 | -64.67954 | 26596 ft | 444 kts | 262° |
| 2026-04-29 13:37 | 10.72585 | -64.71083 | 26995 ft | 446 kts | 262° |
| 2026-04-29 13:37 | 10.72234 | -64.74191 | 27383 ft | 449 kts | 263° |
| 2026-04-29 13:38 | 10.71876 | -64.77367 | 27777 ft | 451 kts | 263° |
| 2026-04-29 13:38 | 10.71519 | -64.80542 | 28154 ft | 453 kts | 263° |
| 2026-04-29 13:38 | 10.71160 | -64.83736 | 28524 ft | 455 kts | 263° |
| 2026-04-29 13:38 | 10.70800 | -64.86942 | 28868 ft | 457 kts | 263° |
| 2026-04-29 13:39 | 10.70444 | -64.90112 | 29305 ft | 456 kts | 263° |
| 2026-04-29 13:39 | 10.70086 | -64.93308 | 29819 ft | 454 kts | 263° |
| 2026-04-29 13:39 | 10.69729 | -64.96486 | 30280 ft | 451 kts | 264° |
| 2026-04-29 13:39 | 10.69376 | -64.99634 | 30757 ft | 446 kts | 264° |
| 2026-04-29 13:40 | 10.69024 | -65.02763 | 31171 ft | 444 kts | 264° |
| 2026-04-29 13:40 | 10.68672 | -65.05887 | 31542 ft | 442 kts | 264° |
| 2026-04-29 13:40 | 10.68323 | -65.08989 | 31899 ft | 441 kts | 264° |
| 2026-04-29 13:40 | 10.67976 | -65.12077 | 32011 ft | 437 kts | 264° |
| 2026-04-29 13:41 | 10.67293 | -65.18125 | 31974 ft | 431 kts | 264° |
| 2026-04-29 13:41 | 10.66610 | -65.24161 | 31979 ft | 429 kts | 264° |
| 2026-04-29 13:42 | 10.65928 | -65.30193 | 31975 ft | 429 kts | 264° |
| 2026-04-29 13:42 | 10.65246 | -65.36217 | 31980 ft | 429 kts | 264° |
| 2026-04-29 13:43 | 10.64560 | -65.42247 | 31978 ft | 429 kts | 264° |
| 2026-04-29 13:43 | 10.63877 | -65.48246 | 31979 ft | 429 kts | 264° |
| 2026-04-29 13:44 | 10.63191 | -65.54279 | 31980 ft | 430 kts | 264° |
| 2026-04-29 13:44 | 10.62500 | -65.60329 | 31982 ft | 430 kts | 264° |
| 2026-04-29 13:45 | 10.61811 | -65.66370 | 31981 ft | 430 kts | 264° |
| 2026-04-29 13:45 | 10.61119 | -65.72410 | 31982 ft | 430 kts | 264° |
| 2026-04-29 13:46 | 10.60430 | -65.78416 | 31981 ft | 430 kts | 263° |
| 2026-04-29 13:46 | 10.59735 | -65.84466 | 31977 ft | 430 kts | 263° |
| 2026-04-29 13:47 | 10.59038 | -65.90532 | 31687 ft | 435 kts | 263° |
| 2026-04-29 13:47 | 10.58686 | -65.93582 | 31443 ft | 434 kts | 263° |
| 2026-04-29 13:47 | 10.58333 | -65.96643 | 30851 ft | 440 kts | 263° |
| 2026-04-29 13:48 | 10.57976 | -65.99739 | 30274 ft | 442 kts | 263° |
| 2026-04-29 13:48 | 10.57745 | -66.02858 | 29629 ft | 445 kts | 271° |
| 2026-04-29 13:48 | 10.58217 | -66.05954 | 29071 ft | 447 kts | 288° |
| 2026-04-29 13:48 | 10.59651 | -66.08757 | 28493 ft | 449 kts | 304° |
| 2026-04-29 13:49 | 10.61525 | -66.11283 | 27875 ft | 448 kts | 307° |
| 2026-04-29 13:49 | 10.63418 | -66.13786 | 27276 ft | 444 kts | 306° |
| 2026-04-29 13:49 | 10.65250 | -66.16249 | 26686 ft | 441 kts | 306° |
| 2026-04-29 13:49 | 10.67076 | -66.18733 | 26109 ft | 436 kts | 306° |
| 2026-04-29 13:50 | 10.68872 | -66.21201 | 25535 ft | 433 kts | 306° |
| 2026-04-29 13:50 | 10.70645 | -66.23661 | 24968 ft | 429 kts | 305° |
| 2026-04-29 13:50 | 10.72393 | -66.26112 | 24392 ft | 427 kts | 305° |
| 2026-04-29 13:50 | 10.74123 | -66.28549 | 23832 ft | 424 kts | 305° |
| 2026-04-29 13:51 | 10.75846 | -66.30975 | 23221 ft | 422 kts | 305° |
| 2026-04-29 13:51 | 10.77550 | -66.33374 | 22709 ft | 416 kts | 305° |
| 2026-04-29 13:51 | 10.79237 | -66.35749 | 22152 ft | 413 kts | 305° |
| 2026-04-29 13:51 | 10.80787 | -66.38191 | 21568 ft | 410 kts | 293° |
| 2026-04-29 13:52 | 10.81453 | -66.40970 | 21081 ft | 404 kts | 270° |
| 2026-04-29 13:52 | 10.81119 | -66.43777 | 20597 ft | 399 kts | 255° |
| 2026-04-29 13:52 | 10.80467 | -66.46522 | 20045 ft | 399 kts | 257° |
| 2026-04-29 13:52 | 10.79935 | -66.49290 | 19501 ft | 398 kts | 258° |
| 2026-04-29 13:53 | 10.79419 | -66.52055 | 18972 ft | 396 kts | 258° |
| 2026-04-29 13:53 | 10.78919 | -66.54801 | 18453 ft | 394 kts | 259° |
| 2026-04-29 13:53 | 10.78429 | -66.57533 | 17898 ft | 391 kts | 259° |
| 2026-04-29 13:53 | 10.77948 | -66.60240 | 17409 ft | 387 kts | 259° |
| 2026-04-29 13:54 | 10.77475 | -66.62925 | 16895 ft | 385 kts | 259° |
| 2026-04-29 13:54 | 10.77006 | -66.65596 | 16389 ft | 383 kts | 259° |
| 2026-04-29 13:54 | 10.76540 | -66.68251 | 15881 ft | 380 kts | 259° |
| 2026-04-29 13:54 | 10.76078 | -66.70899 | 15378 ft | 378 kts | 259° |
| 2026-04-29 13:55 | 10.75622 | -66.73521 | 14879 ft | 376 kts | 259° |
| 2026-04-29 13:55 | 10.75171 | -66.76118 | 14380 ft | 370 kts | 259° |
| 2026-04-29 13:55 | 10.74728 | -66.78671 | 13894 ft | 364 kts | 259° |
| 2026-04-29 13:55 | 10.74290 | -66.81191 | 13393 ft | 359 kts | 259° |
| 2026-04-29 13:56 | 10.73866 | -66.83630 | 12952 ft | 351 kts | 259° |
| 2026-04-29 13:56 | 10.73444 | -66.86057 | 12484 ft | 346 kts | 259° |
| 2026-04-29 13:56 | 10.73027 | -66.88454 | 12026 ft | 341 kts | 259° |
| 2026-04-29 13:56 | 10.72628 | -66.90813 | 11581 ft | 337 kts | 262° |
| 2026-04-29 13:57 | 10.72537 | -66.93173 | 11156 ft | 332 kts | 272° |
| 2026-04-29 13:57 | 10.72632 | -66.95510 | 10691 ft | 329 kts | 272° |
| 2026-04-29 13:57 | 10.72695 | -66.97825 | 10264 ft | 326 kts | 271° |
| 2026-04-29 13:57 | 10.72728 | -67.00130 | 9828 ft | 323 kts | 271° |
| 2026-04-29 13:58 | 10.72738 | -67.02380 | 9405 ft | 319 kts | 270° |
| 2026-04-29 13:58 | 10.72738 | -67.04625 | 8996 ft | 315 kts | 270° |
| 2026-04-29 13:58 | 10.72730 | -67.06846 | 8564 ft | 312 kts | 270° |
| 2026-04-29 13:58 | 10.72722 | -67.09046 | 8153 ft | 309 kts | 269° |
| 2026-04-29 13:59 | 10.72716 | -67.11222 | 7749 ft | 306 kts | 269° |
| 2026-04-29 13:59 | 10.72709 | -67.13374 | 7343 ft | 303 kts | 269° |
| 2026-04-29 13:59 | 10.72704 | -67.15501 | 6949 ft | 300 kts | 269° |
| 2026-04-29 13:59 | 10.72700 | -67.17610 | 6556 ft | 296 kts | 269° |
| 2026-04-29 14:00 | 10.72695 | -67.19696 | 6170 ft | 293 kts | 268° |
| 2026-04-29 14:00 | 10.72690 | -67.21746 | 5869 ft | 286 kts | 269° |
| 2026-04-29 14:00 | 10.72701 | -67.23754 | 5537 ft | 281 kts | 269° |
| 2026-04-29 14:00 | 10.72716 | -67.25726 | 5285 ft | 276 kts | 269° |
| 2026-04-29 14:01 | 10.72728 | -67.27642 | 5044 ft | 274 kts | 269° |
| 2026-04-29 14:01 | 10.72738 | -67.29587 | 4798 ft | 275 kts | 269° |
| 2026-04-29 14:01 | 10.72749 | -67.31534 | 4519 ft | 275 kts | 269° |
| 2026-04-29 14:01 | 10.72760 | -67.33467 | 4246 ft | 267 kts | 269° |
| 2026-04-29 14:02 | 10.72771 | -67.35306 | 4066 ft | 252 kts | 269° |
| 2026-04-29 14:02 | 10.72562 | -67.37005 | 3980 ft | 236 kts | 248° |
| 2026-04-29 14:02 | 10.71672 | -67.38344 | 3995 ft | 227 kts | 220° |
| 2026-04-29 14:02 | 10.70327 | -67.39118 | 3992 ft | 226 kts | 193° |
| 2026-04-29 14:03 | 10.68788 | -67.39385 | 4017 ft | 225 kts | 186° |
| 2026-04-29 14:03 | 10.67239 | -67.39576 | 4035 ft | 224 kts | 186° |
| 2026-04-29 14:03 | 10.65689 | -67.39721 | 4009 ft | 223 kts | 176° |
| 2026-04-29 14:03 | 10.64225 | -67.39258 | 4003 ft | 223 kts | 144° |
| 2026-04-29 14:04 | 10.63227 | -67.38069 | 4027 ft | 225 kts | 114° |
| 2026-04-29 14:04 | 10.62909 | -67.36519 | 4051 ft | 226 kts | 96° |
| 2026-04-29 14:04 | 10.62808 | -67.34912 | 3985 ft | 228 kts | 94° |
| 2026-04-29 14:04 | 10.62709 | -67.33332 | 3982 ft | 225 kts | 95° |
| 2026-04-29 14:05 | 10.62567 | -67.31749 | 3988 ft | 225 kts | 103° |
| 2026-04-29 14:05 | 10.61987 | -67.30282 | 3995 ft | 224 kts | 120° |
| 2026-04-29 14:05 | 10.61196 | -67.28911 | 3990 ft | 225 kts | 121° |
| 2026-04-29 14:05 | 10.60443 | -67.27518 | 3993 ft | 224 kts | 117° |
| 2026-04-29 14:06 | 10.59750 | -67.26095 | 3991 ft | 224 kts | 114° |
| 2026-04-29 14:06 | 10.59528 | -67.24543 | 4014 ft | 224 kts | 86° |
| 2026-04-29 14:06 | 10.59716 | -67.22953 | 3979 ft | 226 kts | 86° |
| 2026-04-29 14:06 | 10.59749 | -67.21374 | 4018 ft | 225 kts | 92° |
| 2026-04-29 14:07 | 10.59750 | -67.19771 | 3733 ft | 227 kts | 89° |
| 2026-04-29 14:07 | 10.59831 | -67.18187 | 3414 ft | 220 kts | 88° |
| 2026-04-29 14:07 | 10.59886 | -67.16655 | 3127 ft | 213 kts | 90° |
| 2026-04-29 14:07 | 10.59920 | -67.15168 | 2848 ft | 207 kts | 89° |
| 2026-04-29 14:08 | 10.59968 | -67.13729 | 2591 ft | 200 kts | 89° |
| 2026-04-29 14:08 | 10.60014 | -67.12333 | 2347 ft | 195 kts | 88° |
| 2026-04-29 14:08 | 10.60059 | -67.10976 | 2105 ft | 190 kts | 88° |
| 2026-04-29 14:08 | 10.60102 | -67.09661 | 1874 ft | 180 kts | 88° |
| 2026-04-29 14:09 | 10.60145 | -67.08433 | 1624 ft | 167 kts | 87° |
| 2026-04-29 14:09 | 10.60191 | -67.07289 | 1399 ft | 156 kts | 88° |
| 2026-04-29 14:09 | 10.60216 | -67.06230 | 1211 ft | 148 kts | 88° |
| 2026-04-29 14:09 | 10.60245 | -67.05207 | 1047 ft | 140 kts | 88° |
| 2026-04-29 14:10 | 10.60278 | -67.04259 | 831 ft | 127 kts | 89° |
| 2026-04-29 14:10 | 10.60337 | -67.03375 | 677 ft | 126 kts | 86° |
| 2026-04-29 14:10 | 10.60347 | -67.02508 | 543 ft | 120 kts | 87° |
| 2026-04-29 14:10 | 10.60375 | -67.01654 | 333 ft | 121 kts | 89° |
| 2026-04-29 14:11 | 10.60395 | -67.00819 | 221 ft | 113 kts | 88° |
| 2026-04-29 14:11 | 10.60415 | -67.00154 | 199 ft | 71 kts | 89° |
| 2026-04-29 14:11 | 10.60429 | -66.99759 | 193 ft | 34 kts | 89° |
| 2026-04-29 14:11 | 10.60337 | -66.99673 | 191 ft | 18 kts | 176° |
| 2026-04-29 14:12 | 10.60214 | -66.99669 | 184 ft | 18 kts | 178° |
| 2026-04-29 14:12 | 10.60140 | -66.99733 | 190 ft | 14 kts | 262° |
| 2026-04-29 14:12 | 10.60136 | -66.99831 | 193 ft | 13 kts | 268° |
| 2026-04-29 14:12 | 10.60125 | -66.99896 | 194 ft | 8 kts | 242° |
| 2026-04-29 14:13 | 10.60076 | -66.99915 | 200 ft | 8 kts | 179° |
| 2026-04-29 14:13 | 10.60013 | -66.99914 | 197 ft | 10 kts | 179° |
| 2026-04-29 14:13 | 10.59940 | -66.99914 | 202 ft | 10 kts | 190° |
| 2026-04-29 14:13 | 10.59912 | -66.99978 | 198 ft | 11 kts | 267° |
| 2026-04-29 14:14 | 10.59910 | -67.00055 | 199 ft | 8 kts | 268° |
| 2026-04-29 14:14 | 10.59871 | -67.00078 | 198 ft | 6 kts | 184° |
| 2026-04-29 14:14 | 10.59844 | -67.00077 | 199 ft | 2 kts | 179° |
| 2026-04-29 14:14 | 10.59835 | -67.00077 | 199 ft | 1 kts | 179° |
| 2026-04-29 14:15 | 10.59833 | -67.00077 | 198 ft | 0 kts | 179° |